Time;durP1;ratioP1;P1;durP2;ratioP2;P2;SDS_P1;SDS_P2;PMS_P1;PMS_P2;Temp;Humidity;BMP_temperature;BMP_pressure;BME280_temperature;BME280_humidity;BME280_pressure;Samples;Min_cycle;Max_cycle;Signal;HPM_P1;HPM_P2
2021/12/10 00:02:16;;;;;;;1.65;1.40;;;22.40;71.10;;;;;;6214969;28;89680;-61
2021/12/10 00:05:23;;;;;;;2.15;1.58;;;22.40;71.30;;;;;;6204714;28;89077;-61
2021/12/10 00:08:27;;;;;;;1.85;1.40;;;22.40;71.10;;;;;;6201298;28;89018;-61
2021/12/10 00:11:36;;;;;;;2.03;1.50;;;22.40;71.20;;;;;;6204131;28;88154;-61
2021/12/10 00:14:39;;;;;;;1.92;1.40;;;22.40;71.10;;;;;;6202869;28;89265;-61
2021/12/10 00:17:42;;;;;;;1.70;1.50;;;22.40;71.20;;;;;;6193986;28;88283;-61
2021/12/10 00:20:47;;;;;;;1.67;1.40;;;22.30;71.10;;;;;;6197714;28;89413;-62
2021/12/10 00:24:09;;;;;;;2.67;1.55;;;22.30;71.10;;;;;;6216534;28;88052;-61
2021/12/10 00:27:12;;;;;;;1.75;1.40;;;22.30;71.20;;;;;;6193311;28;90016;-61
2021/12/10 00:30:43;;;;;;;1.95;1.30;;;22.30;71.30;;;;;;6191490;28;89157;-61
2021/12/10 00:33:54;;;;;;;2.28;1.50;;;22.20;71.30;;;;;;6194473;28;90310;-62
2021/12/10 00:36:59;;;;;;;1.65;1.40;;;22.20;72.80;;;;;;6196976;28;89267;-61
2021/12/10 00:40:05;;;;;;;3.92;1.52;;;22.20;72.40;;;;;;6206128;28;89152;-61
2021/12/10 00:43:07;;;;;;;3.97;1.40;;;22.20;72.50;;;;;;6195098;28;89062;-61
2021/12/10 00:46:09;;;;;;;4.20;1.55;;;22.10;72.30;;;;;;6191715;28;89339;-61
2021/12/10 00:49:13;;;;;;;1.92;1.35;;;22.10;72.40;;;;;;6190335;28;87222;-62
2021/12/10 00:52:17;;;;;;;1.75;1.35;;;22.10;72.30;;;;;;6198291;28;89053;-61
2021/12/10 00:55:19;;;;;;;2.42;1.55;;;22.10;72.40;;;;;;6194773;28;89086;-61
2021/12/10 00:58:23;;;;;;;1.88;1.40;;;22.10;72.40;;;;;;6196039;28;89941;-62
2021/12/10 01:01:29;;;;;;;3.17;1.50;;;22.00;72.30;;;;;;6196996;28;87996;-61
2021/12/10 01:04:35;;;;;;;2.35;1.20;;;22.00;72.20;;;;;;6198950;28;87974;-61
2021/12/10 01:07:38;;;;;;;1.60;1.30;;;22.00;72.30;;;;;;6199316;28;89083;-61
2021/12/10 01:10:45;;;;;;;1.60;1.30;;;22.00;72.30;;;;;;6200256;28;89270;-61
2021/12/10 01:13:50;;;;;;;2.50;1.50;;;22.00;72.30;;;;;;6197508;28;89026;-62
2021/12/10 01:23:53;;;;;;;1.50;1.30;;;22.00;71.80;;;;;;6203841;28;88483;-61
2021/12/10 01:27:00;;;;;;;2.03;1.50;;;22.10;71.90;;;;;;6202563;28;89117;-61
2021/12/10 01:30:08;;;;;;;2.45;1.58;;;22.00;71.80;;;;;;6200254;28;90453;-61
2021/12/10 01:33:17;;;;;;;2.15;1.70;;;22.10;71.80;;;;;;6197734;28;89041;-61
2021/12/10 01:36:22;;;;;;;2.78;1.90;;;22.10;71.80;;;;;;6202061;28;89020;-61
2021/12/10 01:39:27;;;;;;;2.50;1.90;;;22.10;71.70;;;;;;6189088;28;89408;-61
2021/12/10 01:42:40;;;;;;;3.35;2.20;;;22.10;71.60;;;;;;6202314;28;89480;-61
2021/12/10 01:45:47;;;;;;;2.65;2.20;;;22.10;72.70;;;;;;6204190;28;89175;-61
2021/12/10 01:48:54;;;;;;;2.78;2.53;;;22.00;71.70;;;;;;6194913;28;89159;-61
2021/12/10 01:51:58;;;;;;;3.17;2.60;;;22.00;71.70;;;;;;6206122;28;88477;-61
2021/12/10 01:55:02;;;;;;;4.32;3.00;;;22.00;71.90;;;;;;6202517;28;88070;-62
2021/12/10 01:58:07;;;;;;;3.35;2.88;;;22.00;71.90;;;;;;6203733;28;87998;-61
2021/12/10 02:01:14;;;;;;;4.43;3.25;;;22.00;71.90;;;;;;6206418;28;89466;-61
2021/12/10 02:04:18;;;;;;;3.58;2.88;;;22.00;72.00;;;;;;6207699;28;89066;-61
2021/12/10 02:07:26;;;;;;;3.63;3.33;;;21.90;71.90;;;;;;6209416;28;89073;-61
2021/12/10 02:10:30;;;;;;;4.43;3.60;;;21.90;72.00;;;;;;6199527;28;89121;-61
2021/12/10 02:13:32;;;;;;;4.13;3.75;;;21.90;72.00;;;;;;6198150;28;87676;-61
2021/12/10 02:16:36;;;;;;;4.70;3.97;;;21.90;72.00;;;;;;6198850;28;89121;-61
2021/12/10 02:19:39;;;;;;;4.57;3.92;;;21.80;72.00;;;;;;6213695;28;89185;-61
2021/12/10 02:22:44;;;;;;;4.88;4.38;;;21.80;72.00;;;;;;6196961;28;88477;-61
2021/12/10 02:25:48;;;;;;;5.55;4.53;;;21.80;72.00;;;;;;6205172;28;89076;-61
2021/12/10 02:28:50;;;;;;;5.70;4.82;;;21.80;72.00;;;;;;6194982;28;88951;-61
2021/12/10 02:31:53;;;;;;;5.63;4.75;;;21.80;72.00;;;;;;6196344;28;89001;-61
2021/12/10 02:34:55;;;;;;;5.80;4.80;;;21.80;72.00;;;;;;6194564;28;88224;-61
2021/12/10 02:37:59;;;;;;;5.88;4.80;;;21.80;72.00;;;;;;6202369;28;89067;-61
2021/12/10 02:41:01;;;;;;;5.22;4.72;;;21.80;71.90;;;;;;6197420;28;89090;-61
2021/12/10 02:44:04;;;;;;;5.70;4.82;;;21.80;71.80;;;;;;6193327;28;89027;-61
2021/12/10 02:47:06;;;;;;;6.63;5.53;;;21.80;71.80;;;;;;6201439;28;89127;-62
2021/12/10 02:50:12;;;;;;;6.70;5.72;;;21.80;71.80;;;;;;6203839;28;89095;-61
2021/12/10 02:53:22;;;;;;;6.43;5.60;;;21.80;71.80;;;;;;6202398;28;87751;-61
2021/12/10 02:56:25;;;;;;;5.90;5.30;;;21.80;71.80;;;;;;6200545;28;89271;-61
2021/12/10 02:59:26;;;;;;;6.13;5.53;;;21.80;71.80;;;;;;6201495;28;88876;-62
2021/12/10 03:02:29;;;;;;;6.55;5.80;;;21.80;71.80;;;;;;6201140;28;90045;-61
2021/12/10 03:05:31;;;;;;;6.35;5.75;;;21.80;71.80;;;;;;6203246;28;89079;-61
2021/12/10 03:08:34;;;;;;;6.55;5.82;;;21.80;71.80;;;;;;6209380;28;89574;-61
2021/12/10 03:11:38;;;;;;;7.32;5.93;;;21.80;71.80;;;;;;6190798;28;89096;-61
2021/12/10 03:14:43;;;;;;;6.22;5.63;;;21.80;71.80;;;;;;6204581;28;89089;-61
2021/12/10 03:17:46;;;;;;;6.47;5.75;;;21.70;71.80;;;;;;6202640;28;89110;-61
2021/12/10 03:20:49;;;;;;;6.38;5.78;;;21.70;71.80;;;;;;6201790;28;89162;-62
2021/12/10 03:23:52;;;;;;;8.82;6.10;;;21.70;71.80;;;;;;6191385;28;88279;-61
2021/12/10 03:26:58;;;;;;;6.60;5.90;;;21.70;71.80;;;;;;6206425;28;89148;-62
2021/12/10 03:30:00;;;;;;;6.57;5.60;;;21.70;72.00;;;;;;6198571;28;89053;-61
2021/12/10 03:33:02;;;;;;;7.10;6.38;;;21.60;72.00;;;;;;6188847;28;89750;-61
2021/12/10 03:36:06;;;;;;;6.38;5.70;;;21.60;71.90;;;;;;6200180;28;89087;-61
2021/12/10 03:39:10;;;;;;;6.68;5.90;;;21.60;72.00;;;;;;6205899;28;89517;-61
2021/12/10 03:42:12;;;;;;;6.43;5.78;;;21.60;72.00;;;;;;6210394;28;89000;-62
2021/12/10 03:45:15;;;;;;;6.63;5.90;;;21.60;72.00;;;;;;6194099;28;89416;-61
2021/12/10 03:48:22;;;;;;;6.53;5.72;;;21.60;72.00;;;;;;6198549;28;89025;-61
2021/12/10 03:51:26;;;;;;;6.43;5.82;;;21.60;72.00;;;;;;6189493;28;89194;-62
2021/12/10 03:54:30;;;;;;;7.18;5.68;;;21.60;72.10;;;;;;6201572;28;88630;-62
2021/12/10 03:57:32;;;;;;;6.20;5.60;;;21.50;72.00;;;;;;6195279;28;89161;-62
2021/12/10 04:00:39;;;;;;;6.32;5.72;;;21.50;72.00;;;;;;6204026;28;87973;-61
2021/12/10 04:03:43;;;;;;;6.32;5.72;;;21.50;72.00;;;;;;6195712;28;90022;-61
2021/12/10 04:06:46;;;;;;;6.43;5.72;;;21.50;72.00;;;;;;6193734;28;89049;-61
2021/12/10 04:09:50;;;;;;;6.35;5.75;;;21.50;72.00;;;;;;6206659;28;89189;-62
2021/12/10 04:12:52;;;;;;;6.22;5.63;;;21.50;72.00;;;;;;6201576;28;89067;-61
2021/12/10 04:15:55;;;;;;;6.63;5.95;;;21.50;72.00;;;;;;6204184;28;89088;-61
2021/12/10 04:18:59;;;;;;;7.50;5.90;;;21.50;72.10;;;;;;6198751;28;89410;-61
2021/12/10 04:22:02;;;;;;;7.00;5.80;;;21.50;71.90;;;;;;6196348;28;89392;-61
2021/12/10 04:25:09;;;;;;;5.93;5.32;;;21.50;71.90;;;;;;6206104;28;87235;-62
2021/12/10 04:28:13;;;;;;;6.32;5.72;;;21.50;71.80;;;;;;6203258;28;88629;-61
2021/12/10 04:31:15;;;;;;;5.78;5.18;;;21.50;71.70;;;;;;6201761;28;89060;-61
2021/12/10 04:34:18;;;;;;;6.03;5.43;;;21.60;71.80;;;;;;6205213;28;88920;-62
2021/12/10 04:37:22;;;;;;;6.05;5.30;;;21.50;71.70;;;;;;6196656;28;89151;-61
2021/12/10 04:40:25;;;;;;;6.25;5.40;;;21.60;71.70;;;;;;6187891;28;89103;-62
2021/12/10 04:43:28;;;;;;;5.70;5.20;;;21.60;71.60;;;;;;6184361;28;89053;-61
2021/12/10 04:46:30;;;;;;;5.68;5.03;;;21.60;71.60;;;;;;6204387;28;89115;-61
2021/12/10 04:49:33;;;;;;;5.45;4.90;;;21.60;71.60;;;;;;6201313;28;89144;-61
2021/12/10 04:52:35;;;;;;;5.82;5.15;;;21.70;71.50;;;;;;6193234;28;89947;-62
2021/12/10 04:55:40;;;;;;;5.40;4.82;;;21.60;71.40;;;;;;6195985;28;88369;-61
2021/12/10 04:58:43;;;;;;;5.47;4.97;;;21.70;71.50;;;;;;6208758;28;89247;-61
2021/12/10 05:01:45;;;;;;;6.03;4.82;;;21.70;71.40;;;;;;6204023;28;88997;-61
2021/12/10 05:04:48;;;;;;;5.13;4.63;;;21.70;71.30;;;;;;6203181;28;90466;-62
2021/12/10 05:07:51;;;;;;;5.47;4.97;;;21.70;71.30;;;;;;6206868;28;89396;-62
2021/12/10 05:10:54;;;;;;;5.50;5.00;;;21.80;71.30;;;;;;6206687;28;88072;-62
2021/12/10 05:13:57;;;;;;;5.25;4.70;;;21.70;71.50;;;;;;6206349;28;89079;-62
2021/12/10 05:17:03;;;;;;;5.32;4.82;;;21.80;71.30;;;;;;6205005;28;89039;-61
2021/12/10 05:20:10;;;;;;;5.13;4.63;;;21.80;71.10;;;;;;6192278;28;91115;-62
2021/12/10 05:23:14;;;;;;;4.85;4.30;;;21.80;71.10;;;;;;6190754;28;89108;-62
2021/12/10 05:26:18;;;;;;;4.90;4.40;;;21.80;71.10;;;;;;6201116;28;88295;-62
2021/12/10 05:29:20;;;;;;;4.47;4.07;;;21.90;71.10;;;;;;6199892;28;89025;-62
2021/12/10 05:32:22;;;;;;;4.82;4.40;;;21.80;71.10;;;;;;6202875;28;88017;-62
2021/12/10 05:35:24;;;;;;;4.70;4.30;;;21.80;71.10;;;;;;6204880;28;89561;-61
2021/12/10 05:38:26;;;;;;;4.70;4.20;;;21.90;71.10;;;;;;6208097;28;89388;-62
2021/12/10 05:41:30;;;;;;;5.05;4.55;;;21.80;71.20;;;;;;6208067;28;89064;-61
2021/12/10 05:44:32;;;;;;;4.28;3.88;;;21.80;71.40;;;;;;6196140;28;90627;-61
2021/12/10 05:47:34;;;;;;;4.97;4.47;;;21.80;71.70;;;;;;6192033;28;89104;-61
2021/12/10 05:50:37;;;;;;;4.63;4.22;;;21.80;71.70;;;;;;6193559;28;88989;-61
2021/12/10 05:53:40;;;;;;;4.82;4.00;;;21.80;71.80;;;;;;6187053;28;89159;-61
2021/12/10 05:56:44;;;;;;;4.40;3.97;;;21.80;71.60;;;;;;6202160;28;87492;-61
2021/12/10 05:59:46;;;;;;;4.55;4.03;;;21.80;71.60;;;;;;6204798;28;89233;-61
2021/12/10 06:02:49;;;;;;;4.63;4.20;;;21.80;71.50;;;;;;6204690;28;89101;-61
2021/12/10 06:05:51;;;;;;;5.32;4.13;;;21.80;71.50;;;;;;6187736;28;88804;-61
2021/12/10 06:08:53;;;;;;;5.43;4.10;;;21.80;71.70;;;;;;6203043;28;89036;-61
2021/12/10 06:11:57;;;;;;;4.82;3.88;;;21.80;71.70;;;;;;6203724;28;89063;-61
2021/12/10 06:14:59;;;;;;;4.25;3.85;;;21.80;71.60;;;;;;6202214;28;89063;-61
2021/12/10 06:18:01;;;;;;;5.50;3.88;;;21.90;71.50;;;;;;6205026;28;89028;-61
2021/12/10 06:21:05;;;;;;;4.22;3.70;;;21.80;71.40;;;;;;6200695;28;89273;-61
2021/12/10 06:24:07;;;;;;;5.78;3.50;;;21.90;71.50;;;;;;6205549;28;89073;-61
2021/12/10 06:27:11;;;;;;;5.50;3.70;;;21.90;71.40;;;;;;6201050;28;88252;-61
2021/12/10 06:30:15;;;;;;;4.57;3.65;;;21.90;71.30;;;;;;6206938;28;89035;-61
2021/12/10 06:33:21;;;;;;;4.18;3.78;;;21.90;71.20;;;;;;6207649;28;89197;-61
2021/12/10 06:36:23;;;;;;;4.38;3.60;;;21.90;71.10;;;;;;6201651;28;90170;-61
2021/12/10 06:39:25;;;;;;;3.67;3.38;;;22.00;71.10;;;;;;6197914;28;89079;-61
2021/12/10 06:42:29;;;;;;;4.82;3.78;;;22.00;71.00;;;;;;6205238;28;89298;-61
2021/12/10 06:45:32;;;;;;;4.88;3.40;;;22.00;71.00;;;;;;6198025;28;89583;-61
2021/12/10 06:48:35;;;;;;;6.35;3.70;;;22.00;70.80;;;;;;6206631;28;88955;-61
2021/12/10 06:51:38;;;;;;;5.75;3.75;;;22.00;70.80;;;;;;6192221;28;89409;-61
2021/12/10 06:54:40;;;;;;;4.03;3.60;;;22.00;70.70;;;;;;6196270;28;89234;-61
2021/12/10 06:57:43;;;;;;;5.65;3.53;;;22.10;70.80;;;;;;6202555;28;88538;-61
2021/12/10 07:00:49;;;;;;;3.70;3.28;;;22.10;70.70;;;;;;6196645;28;89316;-61
2021/12/10 07:03:52;;;;;;;4.45;3.40;;;22.10;70.60;;;;;;6200938;28;89086;-61
2021/12/10 07:06:55;;;;;;;3.60;3.30;;;22.10;70.50;;;;;;6193476;28;89408;-61
2021/12/10 07:09:57;;;;;;;3.83;3.30;;;22.20;70.50;;;;;;6206223;28;89141;-61
2021/12/10 07:13:03;;;;;;;3.35;3.05;;;22.10;70.40;;;;;;6204057;28;89181;-61
2021/12/10 07:16:07;;;;;;;4.18;3.25;;;22.10;70.40;;;;;;6210467;28;89049;-61
2021/12/10 07:19:09;;;;;;;4.03;3.20;;;22.20;70.30;;;;;;6201355;28;89072;-61
2021/12/10 07:22:12;;;;;;;3.67;3.20;;;22.20;70.20;;;;;;6211490;28;90457;-61
2021/12/10 07:25:14;;;;;;;4.43;3.13;;;22.20;70.20;;;;;;6203378;28;89192;-61
2021/12/10 07:28:18;;;;;;;4.22;3.35;;;22.20;70.10;;;;;;6206524;28;88349;-61
2021/12/10 07:31:20;;;;;;;3.47;3.17;;;22.30;70.10;;;;;;6208385;28;89103;-61
2021/12/10 07:34:22;;;;;;;3.30;3.00;;;22.30;70.10;;;;;;6205372;28;89035;-61
2021/12/10 07:37:24;;;;;;;4.00;3.60;;;22.30;70.00;;;;;;6201720;28;90050;-61
2021/12/10 07:40:28;;;;;;;3.60;3.30;;;22.30;70.00;;;;;;6203971;28;89425;-61
2021/12/10 07:43:32;;;;;;;3.72;3.17;;;22.30;70.00;;;;;;6198397;28;89071;-60
2021/12/10 07:46:34;;;;;;;4.25;3.30;;;22.30;70.00;;;;;;6201200;28;89079;-60
2021/12/10 07:49:37;;;;;;;3.15;2.83;;;22.30;70.00;;;;;;6200685;28;89142;-61
2021/12/10 07:52:40;;;;;;;3.10;2.80;;;22.30;69.90;;;;;;6200296;28;89108;-61
2021/12/10 07:55:42;;;;;;;3.83;3.30;;;22.30;70.00;;;;;;6204836;28;89331;-61
2021/12/10 07:58:46;;;;;;;3.92;2.90;;;22.40;69.90;;;;;;6203605;28;88644;-61
2021/12/10 08:01:48;;;;;;;3.97;3.05;;;22.30;69.80;;;;;;6200543;28;89178;-61
2021/12/10 08:05:09;;;;;;;4.03;3.13;;;22.40;69.80;;;;;;6200539;28;88029;-61
2021/12/10 08:08:12;;;;;;;3.38;3.08;;;22.40;69.80;;;;;;6204831;28;92095;-61
2021/12/10 08:11:14;;;;;;;3.63;2.85;;;22.40;69.80;;;;;;6211494;28;89526;-61
2021/12/10 08:14:18;;;;;;;3.40;3.10;;;22.40;69.70;;;;;;6201462;28;89034;-61
2021/12/10 08:17:21;;;;;;;3.17;2.83;;;22.40;69.70;;;;;;6203774;28;89015;-61
2021/12/10 08:20:25;;;;;;;3.28;2.97;;;22.40;69.70;;;;;;6203223;28;89300;-61
2021/12/10 08:23:27;;;;;;;3.38;3.08;;;22.40;69.80;;;;;;6203593;28;89058;-61
2021/12/10 08:26:30;;;;;;;3.90;2.80;;;22.50;69.70;;;;;;6201459;28;89397;-61
2021/12/10 08:29:33;;;;;;;3.17;2.88;;;22.40;69.60;;;;;;6197216;28;88479;-61
2021/12/10 08:32:35;;;;;;;3.38;3.00;;;22.50;69.70;;;;;;6211479;28;89112;-61
2021/12/10 08:35:39;;;;;;;3.30;2.70;;;22.50;69.60;;;;;;6209847;28;89083;-60
2021/12/10 08:38:42;;;;;;;2.92;2.67;;;22.50;69.70;;;;;;6203086;28;90226;-61
2021/12/10 08:41:44;;;;;;;3.10;2.78;;;22.50;69.60;;;;;;6191176;28;89126;-61
2021/12/10 08:44:47;;;;;;;3.10;2.80;;;22.50;69.70;;;;;;6201642;28;88152;-60
2021/12/10 08:47:51;;;;;;;3.20;2.75;;;22.50;69.60;;;;;;6206612;28;89091;-61
2021/12/10 08:50:55;;;;;;;2.97;2.60;;;22.50;69.60;;;;;;6200141;28;89129;-61
2021/12/10 08:53:58;;;;;;;3.38;2.83;;;22.50;69.60;;;;;;6202196;28;89064;-61
2021/12/10 08:57:00;;;;;;;3.00;2.70;;;22.50;69.60;;;;;;6201419;28;89215;-61
2021/12/10 09:00:06;;;;;;;3.25;2.53;;;22.60;69.60;;;;;;6208009;28;87317;-60
2021/12/10 09:03:09;;;;;;;2.72;2.53;;;22.60;69.60;;;;;;6202906;28;89051;-61
2021/12/10 09:06:12;;;;;;;2.70;2.50;;;22.50;69.40;;;;;;6206728;28;89219;-60
2021/12/10 09:09:15;;;;;;;2.63;2.33;;;22.50;69.40;;;;;;6208477;28;90317;-60
2021/12/10 09:12:23;;;;;;;2.60;2.40;;;22.60;69.60;;;;;;6199093;28;89427;-61
2021/12/10 09:15:27;;;;;;;3.15;2.40;;;22.60;69.50;;;;;;6200357;28;89203;-61
2021/12/10 09:18:30;;;;;;;2.63;2.35;;;22.60;70.40;;;;;;6202293;28;89204;-61
2021/12/10 09:21:33;;;;;;;3.13;2.45;;;22.60;69.40;;;;;;6195223;28;89036;-61
2021/12/10 09:24:37;;;;;;;2.90;2.40;;;22.60;69.40;;;;;;6202755;28;89023;-60
2021/12/10 09:27:39;;;;;;;2.63;2.30;;;22.60;69.40;;;;;;6204664;28;89524;-61
2021/12/10 09:30:46;;;;;;;2.85;2.55;;;22.60;69.40;;;;;;6208422;28;88344;-61
2021/12/10 09:33:48;;;;;;;2.60;2.30;;;22.60;69.40;;;;;;6186309;28;89067;-61
2021/12/10 09:36:52;;;;;;;2.85;2.60;;;22.60;69.40;;;;;;6204684;28;89126;-61
2021/12/10 09:39:54;;;;;;;2.45;2.08;;;22.60;69.50;;;;;;6198980;28;89993;-61
2021/12/10 09:42:56;;;;;;;2.97;2.30;;;22.60;69.40;;;;;;6189133;28;89126;-61
2021/12/10 09:46:00;;;;;;;2.90;2.50;;;22.60;69.40;;;;;;6190155;28;89072;-61
2021/12/10 09:49:04;;;;;;;2.78;2.40;;;22.60;69.40;;;;;;6197973;28;89101;-61
2021/12/10 09:52:09;;;;;;;2.50;2.13;;;22.60;69.40;;;;;;6200720;28;89701;-61
2021/12/10 09:55:14;;;;;;;2.28;2.08;;;22.60;69.40;;;;;;6202317;28;89045;-61
2021/12/10 09:58:17;;;;;;;3.15;2.50;;;22.60;70.30;;;;;;6204330;28;89089;-60
2021/12/10 10:01:24;;;;;;;2.67;2.30;;;22.60;69.40;;;;;;6207206;28;87241;-61
2021/12/10 10:04:27;;;;;;;2.60;2.30;;;22.70;69.40;;;;;;6215679;28;89412;-61
2021/12/10 10:07:31;;;;;;;2.33;2.10;;;22.70;69.40;;;;;;6204193;28;88686;-61
2021/12/10 10:10:34;;;;;;;2.50;2.25;;;22.70;69.40;;;;;;6203565;28;90037;-60
2021/12/10 10:13:40;;;;;;;3.45;2.20;;;22.70;69.40;;;;;;6203147;28;89111;-61
2021/12/10 10:16:44;;;;;;;2.25;2.05;;;22.70;69.40;;;;;;6199666;28;88537;-61
2021/12/10 10:19:47;;;;;;;2.63;2.25;;;22.60;69.40;;;;;;6202279;28;87927;-60
2021/12/10 10:22:51;;;;;;;2.40;2.20;;;22.60;69.40;;;;;;6206331;28;89169;-61
2021/12/10 10:25:55;;;;;;;2.20;2.00;;;22.70;69.40;;;;;;6188547;28;89232;-62
2021/12/10 10:28:58;;;;;;;2.45;2.20;;;22.70;69.40;;;;;;6199245;28;89060;-60
2021/12/10 10:32:09;;;;;;;2.33;2.00;;;22.70;69.40;;;;;;6201031;28;88403;-61
2021/12/10 10:35:16;;;;;;;1.92;1.77;;;22.70;69.40;;;;;;6204329;28;89099;-60
2021/12/10 10:38:19;;;;;;;2.50;2.00;;;22.70;69.40;;;;;;6196804;28;88979;-61
2021/12/10 10:41:27;;;;;;;2.38;2.17;;;22.70;69.30;;;;;;6205151;28;90573;-60
2021/12/10 10:44:29;;;;;;;2.72;1.92;;;22.70;69.30;;;;;;6199897;28;89091;-60
2021/12/10 10:47:33;;;;;;;2.45;1.83;;;22.70;69.30;;;;;;6202517;28;89090;-61
2021/12/10 10:50:37;;;;;;;2.35;2.15;;;22.70;69.30;;;;;;6203530;28;89051;-61
2021/12/10 10:53:44;;;;;;;2.33;2.08;;;22.70;69.30;;;;;;6195200;28;89079;-60
2021/12/10 10:56:48;;;;;;;2.15;1.95;;;22.70;69.30;;;;;;6199122;28;88661;-60
2021/12/10 10:59:54;;;;;;;2.22;1.90;;;22.70;70.30;;;;;;6204130;28;89102;-61
2021/12/10 11:03:03;;;;;;;1.92;1.60;;;22.70;69.30;;;;;;6205621;28;88293;-60
2021/12/10 11:06:10;;;;;;;2.20;2.00;;;22.70;69.30;;;;;;6197365;28;88728;-60
2021/12/10 11:09:14;;;;;;;2.08;1.80;;;22.70;69.30;;;;;;6204772;28;88830;-60
2021/12/10 11:12:20;;;;;;;2.20;2.00;;;22.70;69.30;;;;;;6190173;28;90147;-61
2021/12/10 11:15:22;;;;;;;2.30;2.08;;;22.80;69.40;;;;;;6202221;28;89028;-60
2021/12/10 11:18:26;;;;;;;2.03;1.90;;;22.70;69.40;;;;;;6205732;28;88347;-61
2021/12/10 11:21:40;;;;;;;1.77;1.67;;;22.70;69.30;;;;;;6203976;28;88262;-61
2021/12/10 11:24:45;;;;;;;2.03;1.83;;;22.80;69.40;;;;;;6202685;28;89080;-60
2021/12/10 11:27:48;;;;;;;1.92;1.83;;;22.80;69.40;;;;;;6206665;28;89246;-61
2021/12/10 11:30:53;;;;;;;1.90;1.70;;;22.80;69.40;;;;;;6204254;28;89365;-61
2021/12/10 11:33:57;;;;;;;2.05;1.73;;;22.70;69.40;;;;;;6205808;28;88741;-61
2021/12/10 11:36:59;;;;;;;1.95;1.77;;;22.80;69.40;;;;;;6207663;28;87993;-60
2021/12/10 11:40:01;;;;;;;1.90;1.80;;;22.80;69.40;;;;;;6201186;28;89040;-61
2021/12/10 11:43:17;;;;;;;2.03;1.83;;;22.80;69.40;;;;;;6203214;28;89349;-61
2021/12/10 11:49:50;;;;;;;2.00;1.77;;;22.80;69.90;;;;;;6193638;28;88503;-61
2021/12/10 11:53:04;;;;;;;1.90;1.70;;;22.80;69.40;;;;;;6204756;28;89407;-61
2021/12/10 11:56:10;;;;;;;1.90;1.77;;;22.80;69.40;;;;;;6195492;28;89096;-61
2021/12/10 11:59:15;;;;;;;1.55;1.45;;;22.80;69.40;;;;;;6205245;28;89119;-60
2021/12/10 12:02:20;;;;;;;1.80;1.70;;;22.90;69.50;;;;;;6215080;28;89108;-61
2021/12/10 12:05:27;;;;;;;1.70;1.60;;;22.90;69.50;;;;;;6204315;28;88403;-61
2021/12/10 12:08:31;;;;;;;1.85;1.60;;;22.90;69.50;;;;;;6198532;28;89408;-60
2021/12/10 12:11:33;;;;;;;2.20;1.80;;;22.90;69.50;;;;;;6203394;28;89292;-61
2021/12/10 12:14:35;;;;;;;2.03;1.73;;;22.90;69.60;;;;;;6188252;28;90300;-61
2021/12/10 12:17:43;;;;;;;2.00;1.80;;;22.90;69.60;;;;;;6197925;28;90356;-61
2021/12/10 12:20:49;;;;;;;1.92;1.80;;;22.80;69.50;;;;;;6185718;28;88813;-61
2021/12/10 12:27:16;;;;;;;1.70;1.60;;;22.90;69.60;;;;;;6203584;28;87105;-60
2021/12/10 12:30:18;;;;;;;1.90;1.60;;;22.90;69.60;;;;;;6198598;28;90045;-61
2021/12/10 12:33:20;;;;;;;2.17;1.80;;;22.90;69.70;;;;;;6196832;28;89470;-61
2021/12/10 12:36:25;;;;;;;1.70;1.60;;;22.90;69.60;;;;;;6195049;28;89837;-61
2021/12/10 12:39:31;;;;;;;1.55;1.45;;;22.90;70.20;;;;;;6194638;28;89107;-61
2021/12/10 12:42:35;;;;;;;1.63;1.52;;;22.90;69.70;;;;;;6214162;28;89101;-61
2021/12/10 12:45:39;;;;;;;1.92;1.70;;;22.90;69.70;;;;;;6203590;28;90025;-60
2021/12/10 12:48:56;;;;;;;1.73;1.63;;;22.90;69.60;;;;;;6205825;28;89096;-61
2021/12/10 12:52:10;;;;;;;2.10;1.90;;;22.90;69.60;;;;;;6202337;28;89153;-61
2021/12/10 12:55:25;;;;;;;1.60;1.50;;;22.90;69.70;;;;;;6197939;28;89166;-61
2021/12/10 12:58:29;;;;;;;2.10;1.80;;;22.90;69.70;;;;;;6197519;28;89012;-61
2021/12/10 13:01:38;;;;;;;1.55;1.45;;;22.90;69.70;;;;;;6197225;28;89046;-61
2021/12/10 13:04:43;;;;;;;1.60;1.50;;;22.90;69.60;;;;;;6202282;28;89093;-61
2021/12/10 13:07:46;;;;;;;1.70;1.60;;;22.90;69.70;;;;;;6203392;28;88328;-61
2021/12/10 13:11:03;;;;;;;1.60;1.50;;;22.90;69.60;;;;;;6204976;28;89420;-61
2021/12/10 13:14:13;;;;;;;1.58;1.30;;;22.90;69.60;;;;;;6206527;28;89136;-61
2021/12/10 13:17:18;;;;;;;1.60;1.40;;;22.90;69.60;;;;;;6203591;28;88512;-60
2021/12/10 13:20:23;;;;;;;1.95;1.75;;;22.90;69.60;;;;;;6203844;28;89081;-61
2021/12/10 13:23:28;;;;;;;1.42;1.33;;;22.90;69.60;;;;;;6207817;28;89063;-61
2021/12/10 13:26:30;;;;;;;1.63;1.50;;;22.90;69.60;;;;;;6206270;28;89113;-61
2021/12/10 13:29:33;;;;;;;1.50;1.40;;;22.90;69.60;;;;;;6206667;28;89247;-61
2021/12/10 13:32:35;;;;;;;1.85;1.52;;;22.90;69.60;;;;;;6203053;28;89038;-61
2021/12/10 13:35:38;;;;;;;1.65;1.45;;;22.90;69.50;;;;;;6198253;28;89522;-61
2021/12/10 13:38:46;;;;;;;1.73;1.60;;;22.90;69.50;;;;;;6207410;28;88448;-60
2021/12/10 13:41:48;;;;;;;1.75;1.40;;;22.90;69.50;;;;;;6197738;28;88050;-61
2021/12/10 13:44:53;;;;;;;1.60;1.50;;;23.00;69.50;;;;;;6203581;28;89142;-60
2021/12/10 13:48:03;;;;;;;1.45;1.33;;;22.90;69.40;;;;;;6200243;28;89077;-60
2021/12/10 13:51:05;;;;;;;1.67;1.58;;;23.00;69.50;;;;;;6198900;28;88858;-61
2021/12/10 13:54:11;;;;;;;1.50;1.40;;;22.90;69.40;;;;;;6199974;28;89080;-61
2021/12/10 13:57:14;;;;;;;1.55;1.42;;;23.00;69.40;;;;;;6205691;28;89142;-61
2021/12/10 14:00:17;;;;;;;1.40;1.30;;;23.00;69.40;;;;;;6207313;28;89206;-61
2021/12/10 14:03:38;;;;;;;1.50;1.40;;;23.00;69.40;;;;;;6206239;28;88910;-60
2021/12/10 14:06:45;;;;;;;2.10;1.50;;;23.00;69.40;;;;;;6204427;28;88517;-60
2021/12/10 14:09:51;;;;;;;1.88;1.70;;;23.00;69.40;;;;;;6205815;28;88318;-60
2021/12/10 14:12:53;;;;;;;1.60;1.50;;;23.00;69.40;;;;;;6204884;28;90244;-61
2021/12/10 14:16:04;;;;;;;1.58;1.48;;;22.90;69.40;;;;;;6206408;28;89076;-60
2021/12/10 14:19:06;;;;;;;2.22;1.65;;;22.90;69.30;;;;;;6195096;28;89818;-61
2021/12/10 14:22:12;;;;;;;1.58;1.45;;;23.00;69.40;;;;;;6200180;28;89175;-61
2021/12/10 14:25:19;;;;;;;1.88;1.60;;;22.90;69.40;;;;;;6206491;28;88004;-61
2021/12/10 14:28:34;;;;;;;1.73;1.60;;;22.90;69.30;;;;;;6205923;28;89380;-60
2021/12/10 14:31:39;;;;;;;1.60;1.50;;;23.00;69.40;;;;;;6196003;28;89135;-60
2021/12/10 14:35:00;;;;;;;1.90;1.67;;;22.90;69.40;;;;;;6203928;28;89005;-61
2021/12/10 14:38:04;;;;;;;2.25;1.75;;;23.00;69.60;;;;;;6187931;28;89344;-61
2021/12/10 14:41:15;;;;;;;1.60;1.50;;;22.90;69.50;;;;;;6188315;28;88900;-60
2021/12/10 14:44:19;;;;;;;2.17;1.50;;;22.90;69.60;;;;;;6198206;28;89124;-60
2021/12/10 14:47:23;;;;;;;3.38;1.50;;;22.90;69.60;;;;;;6184342;28;89138;-61
2021/12/10 14:50:25;;;;;;;2.75;1.70;;;23.00;69.80;;;;;;6189251;28;89045;-61
2021/12/10 14:53:30;;;;;;;3.00;1.70;;;23.00;69.80;;;;;;6189149;28;89486;-60
2021/12/10 14:56:36;;;;;;;2.47;1.65;;;23.00;69.90;;;;;;6187626;28;89117;-60
2021/12/10 14:59:41;;;;;;;1.80;1.60;;;22.90;69.80;;;;;;6177189;28;89458;-61
2021/12/10 15:02:43;;;;;;;2.22;1.60;;;22.90;69.80;;;;;;6191623;28;87985;-61
2021/12/10 15:05:49;;;;;;;1.85;1.60;;;22.90;69.80;;;;;;6195550;28;90104;-61
2021/12/10 15:08:56;;;;;;;2.72;1.70;;;23.00;69.80;;;;;;6203170;28;88948;-61
2021/12/10 15:12:00;;;;;;;1.77;1.67;;;23.00;69.80;;;;;;6189799;28;88544;-61
2021/12/10 15:15:03;;;;;;;2.20;1.60;;;23.00;69.70;;;;;;6189908;28;88055;-60
2021/12/10 15:18:05;;;;;;;2.25;1.80;;;23.00;69.60;;;;;;6199832;28;89407;-61
2021/12/10 15:21:15;;;;;;;1.80;1.70;;;23.00;69.60;;;;;;6197515;28;89956;-61
2021/12/10 15:24:22;;;;;;;1.98;1.70;;;23.00;69.60;;;;;;6195846;28;89038;-60
2021/12/10 15:27:30;;;;;;;2.05;1.85;;;23.00;69.60;;;;;;6198190;28;89127;-60
2021/12/10 15:30:39;;;;;;;2.10;1.60;;;23.00;69.60;;;;;;6194211;28;89367;-60
2021/12/10 15:33:41;;;;;;;2.08;1.60;;;23.00;69.60;;;;;;6189144;28;89278;-61
2021/12/10 15:36:44;;;;;;;1.75;1.52;;;23.00;69.60;;;;;;6192063;28;88998;-61
2021/12/10 15:39:48;;;;;;;2.47;1.70;;;23.00;69.50;;;;;;6199760;28;89130;-61
2021/12/10 15:42:53;;;;;;;1.70;1.60;;;23.00;69.50;;;;;;6189277;28;88014;-61
2021/12/10 15:45:59;;;;;;;1.70;1.60;;;23.00;69.50;;;;;;6203440;28;90146;-61
2021/12/10 15:49:11;;;;;;;1.70;1.60;;;23.00;69.50;;;;;;6190962;28;89135;-61
2021/12/10 15:52:18;;;;;;;1.50;1.40;;;23.00;69.60;;;;;;6183769;28;90217;-61
2021/12/10 15:55:21;;;;;;;2.13;1.70;;;23.00;69.60;;;;;;6191314;28;89062;-60
2021/12/10 15:58:27;;;;;;;2.03;1.73;;;23.00;69.60;;;;;;6200960;28;89356;-60
2021/12/10 16:01:32;;;;;;;2.15;1.67;;;23.00;69.70;;;;;;6200458;28;89240;-61
2021/12/10 16:04:37;;;;;;;3.00;1.90;;;23.00;69.80;;;;;;6196828;28;89138;-61
2021/12/10 16:07:44;;;;;;;2.17;1.88;;;23.00;70.00;;;;;;6202699;28;89150;-61
2021/12/10 16:10:49;;;;;;;2.00;1.80;;;23.00;69.80;;;;;;6203995;28;88995;-60
2021/12/10 16:13:55;;;;;;;2.00;1.80;;;23.00;69.80;;;;;;6195990;28;88356;-61
2021/12/10 16:16:58;;;;;;;3.22;1.75;;;23.00;69.70;;;;;;6194499;28;89092;-60